Date,TemperatureHighF,TemperatureAvgF,TemperatureLowF,DewpointHighF,DewpointAvgF,DewpointLowF,HumidityHigh,HumidityAvg,HumidityLow,PressureMaxIn,PressureMinIn,WindSpeedMaxMPH,WindSpeedAvgMPH,GustSpeedMaxMPH,PrecipitationSumIn
2013-1-1,51,50,48,47,42,35,88,76,62,28.94,28.76,3,0,4,0.25
2013-1-2,58,52,48,49,47,44,89,82,71,28.94,28.73,3,0,6,0.00
2013-1-3,53,49,44,46,43,38,87,82,74,29.09,28.91,6,1,6,0.00
2013-1-4,61,45,31,45,33,24,83,65,53,29.14,29.03,6,1,8,0.00
2013-1-5,56,43,30,41,31,22,74,64,55,29.20,29.03,6,1,6,0.00
2013-1-6,66,50,40,51,39,30,78,67,53,29.06,28.85,10,1,10,0.00
2013-1-7,62,45,32,47,34,25,76,65,52,29.20,29.03,10,1,10,0.00
2013-1-8,54,43,32,41,34,24,76,70,61,29.26,29.14,3,0,3,0.00
2013-1-9,69,57,50,57,49,41,82,73,65,29.26,29.17,3,0,4,0.00
2013-1-10,70,59,49,58,51,44,88,76,64,29.29,29.14,4,1,7,0.04
2013-1-11,60,57,56,57,55,53,98,92,82,29.14,28.97,3,0,4,0.83
2013-1-12,75,63,56,69,59,55,100,90,71,29.00,28.91,6,0,6,0.83
2013-1-13,68,61,56,63,58,52,100,90,81,28.97,28.88,5,0,5,0.04
2013-1-14,67,64,61,67,64,60,100,100,97,28.97,28.88,4,0,4,0.50
2013-1-15,64,59,53,64,59,52,100,99,95,28.94,28.85,3,0,4,1.86
2013-1-16,56,54,51,56,54,51,100,99,97,28.85,28.79,4,0,4,0.34
2013-1-17,56,53,42,56,52,39,100,97,90,29.03,28.55,6,0,9,2.94
2013-1-18,64,45,34,53,37,29,92,74,54,29.32,29.03,5,1,6,0.00
2013-1-19,61,43,31,46,34,24,79,69,55,29.32,29.03,6,1,6,0.00
2013-1-20,69,49,33,52,38,28,82,66,52,29.03,28.88,6,1,8,0.00
2013-1-21,94,49,32,68,36,25,78,62,44,28.94,28.82,6,1,9,0.00
2013-1-22,79,43,33,57,29,20,66,57,48,29.09,28.91,8,2,11,0.00
2013-1-23,79,44,28,57,30,18,68,57,47,29.17,28.97,8,1,10,0.00
2013-1-24,46,39,34,30,25,21,57,56,55,29.29,29.12,7,2,7,0.00
2013-1-25,34,32,30,27,21,18,77,65,57,29.29,28.94,6,1,6,0.00
2013-1-26,52,38,30,39,31,24,84,75,62,29.14,28.91,4,0,4,0.04
2013-1-27,52,42,31,41,32,25,79,69,62,29.35,29.14,6,1,10,0.00
2013-1-28,53,47,43,44,39,34,77,72,66,29.26,29.09,4,0,5,0.00
2013-1-29,67,55,41,58,49,35,89,81,72,29.09,28.85,6,0,6,0.04
2013-1-30,67,61,50,64,58,45,100,91,82,28.85,28.35,12,2,17,2.04
2013-1-31,64,46,36,48,36,28,84,67,58,28.91,28.50,10,2,10,0.00
2013-2-1,58,42,32,41,29,19,75,61,53,29.17,28.82,11,2,13,0.00
2013-2-2,58,38,26,41,27,16,78,65,53,29.20,28.88,6,1,6,0.21
2013-2-3,58,44,33,45,34,28,81,69,55,28.88,28.73,11,1,13,0.04
2013-2-4,51,41,32,37,30,24,76,66,56,28.97,28.85,5,1,6,0.00
2013-2-5,64,48,35,50,38,28,78,68,56,28.85,28.76,10,1,14,0.00
2013-2-6,69,51,37,50,39,30,81,64,50,29.03,28.85,6,1,8,0.00
2013-2-7,51,47,41,44,38,31,84,73,62,29.06,28.82,4,0,4,0.33
2013-2-8,60,50,40,52,43,32,89,77,61,28.94,28.76,8,1,8,0.00
2013-2-9,61,45,30,44,35,24,79,67,52,29.12,28.91,5,1,6,0.00
2013-2-10,57,47,38,45,38,30,84,71,57,29.20,29.00,6,1,6,0.66
2013-2-11,58,53,50,56,50,44,97,89,82,29.00,28.82,6,0,7,0.09
2013-2-12,61,51,43,48,44,38,87,76,60,28.94,28.73,6,0,6,0.16
2013-2-13,54,48,41,48,42,34,88,81,69,28.73,28.52,12,1,12,0.00
2013-2-14,56,44,32,42,35,27,84,72,61,28.91,28.73,9,1,10,0.00
2013-2-15,65,48,33,50,38,27,82,67,53,28.94,28.76,8,1,9,0.00
2013-2-16,48,41,32,36,30,20,76,66,56,28.88,28.67,13,2,14,0.00
2013-2-17,49,38,27,33,24,14,63,57,54,29.09,28.88,17,2,17,0.00
2013-2-18,58,42,26,41,29,17,70,61,52,29.17,29.03,11,1,11,0.00
2013-2-19,56,45,37,46,35,27,81,69,56,29.03,28.73,10,1,11,0.21
2013-2-20,60,46,32,42,31,20,65,56,52,28.97,28.85,6,1,6,0.00
2013-2-21,73,56,47,52,40,37,73,56,49,29.03,28.88,5,1,6,0.12
2013-2-22,47,44,42,40,38,36,85,79,73,29.09,28.91,3,1,4,0.46
2013-2-23,48,45,43,46,42,39,93,87,85,28.94,28.70,3,0,3,0.45
2013-2-25,52,48,41,38,35,33,75,62,58,28.97,28.82,7,3,9,0.05
2013-2-26,46,43,39,43,38,32,88,84,75,28.82,28.44,9,2,10,1.78
2013-2-27,66,52,41,51,41,34,84,67,59,28.64,28.52,10,2,10,0.00
2013-2-28,54,46,39,41,33,28,67,62,58,28.76,28.61,10,2,11,0.00
2013-3-1,55,44,32,42,33,24,75,63,58,28.79,28.67,6,1,8,0.00
2013-3-2,50,43,36,39,33,25,78,67,59,28.79,28.67,7,1,10,0.12
2013-3-3,54,40,28,38,28,20,74,61,54,28.85,28.70,9,1,12,0.00
2013-3-4,57,43,26,39,30,17,69,60,52,28.97,28.82,6,1,10,0.00
2013-3-5,50,44,37,44,37,28,84,75,65,28.88,28.50,7,1,9,0.58
2013-3-6,51,42,34,38,31,25,72,64,59,28.94,28.58,18,3,18,0.00
2013-3-7,60,45,29,43,33,22,76,65,54,29.06,28.91,8,1,9,0.00
2013-3-8,59,46,32,42,34,25,75,64,52,29.14,29.00,8,1,8,0.00
2013-3-9,62,49,34,45,36,26,75,62,54,29.17,29.03,6,1,9,0.00
2013-3-10,66,54,41,48,41,32,75,63,52,29.12,28.97,6,1,7,0.00
2013-3-11,57,56,53,54,51,46,91,83,75,28.91,28.64,4,0,5,0.99
2013-3-12,70,60,50,57,50,35,92,70,50,28.85,28.58,9,2,11,0.38
2013-3-13,61,50,37,45,36,26,73,58,52,29.00,28.85,12,2,12,0.00
2013-3-14,57,46,32,40,31,22,66,56,52,29.12,28.97,7,2,9,0.00
2013-3-15,73,54,34,54,39,24,67,57,51,29.03,28.73,10,1,11,0.00
2013-3-16,80,66,52,60,50,42,69,57,50,28.76,28.61,9,2,10,0.00
2013-3-17,78,64,49,60,50,41,72,61,53,28.82,28.70,12,2,12,0.00
2013-3-18,60,49,46,48,42,40,85,76,62,28.91,28.70,6,2,8,0.54
2013-3-19,68,56,44,52,44,32,86,65,50,28.91,28.70,11,2,14,0.00
2013-3-20,61,49,40,43,35,28,67,58,51,28.94,28.67,12,2,13,0.00
2013-3-21,54,46,35,38,31,21,58,55,53,28.76,28.64,12,2,15,0.00
2013-3-22,51,43,34,36,29,21,63,57,54,28.88,28.76,5,1,7,0.00
2013-3-23,54,48,44,46,40,34,79,73,63,28.88,28.70,6,1,8,0.12
2013-3-24,52,49,47,46,44,42,87,82,76,28.73,28.41,6,2,6,1.29
2013-3-25,55,45,38,43,34,27,85,65,59,28.79,28.41,14,3,14,0.00
2013-3-26,53,43,32,40,30,24,70,61,56,29.03,28.76,15,2,15,0.00
2013-3-27,60,46,31,43,33,22,74,59,52,29.09,28.97,14,2,14,0.00
2013-3-28,65,49,32,46,35,22,69,57,50,29.14,29.00,8,2,8,0.00
2013-3-29,60,49,34,44,35,23,67,59,52,29.17,29.03,8,1,8,0.00
2013-3-30,68,58,48,52,46,40,77,65,55,29.06,28.85,9,1,9,0.04
2013-3-31,70,61,54,59,53,48,90,76,62,28.88,28.67,7,1,7,0.53
2013-4-1,73,64,51,57,52,44,83,66,51,28.85,28.67,8,1,10,0.00
2013-4-2,71,59,45,52,44,37,72,57,49,28.97,28.85,8,1,12,0.00
2013-4-3,62,57,52,44,41,37,62,55,51,29.06,28.94,7,1,8,0.00
2013-4-4,53,48,44,41,38,35,80,69,58,29.06,28.79,6,1,7,0.46
2013-4-5,65,53,44,51,44,38,83,74,59,28.91,28.73,8,1,8,0.00
2013-4-6,70,56,39,52,44,33,79,64,52,29.06,28.91,10,1,10,0.00
2013-4-7,72,59,42,56,47,35,75,65,56,29.06,28.94,8,1,11,0.00
2013-4-8,77,64,52,60,53,44,78,67,56,29.00,28.91,7,1,10,0.00
2013-4-9,82,68,53,65,56,47,81,67,55,29.03,28.94,14,1,14,0.00
2013-4-10,85,71,56,66,58,50,80,66,54,28.97,28.79,11,1,17,0.00
2013-4-11,79,69,58,65,59,51,83,72,59,28.82,28.55,9,2,13,0.54
2013-4-12,78,70,60,65,58,45,91,68,50,28.70,28.50,10,2,14,0.79
2013-4-13,79,65,47,59,49,38,73,58,47,28.85,28.70,8,1,10,0.00
2013-4-14,68,60,48,54,48,39,77,65,57,28.94,28.82,7,1,8,0.08
2013-4-15,72,65,59,60,57,52,86,76,66,29.03,28.82,8,1,11,0.09
2013-4-16,78,69,63,64,60,56,85,74,59,29.12,29.03,8,1,10,0.00
2013-4-17,83,69,62,69,62,56,86,76,60,29.09,28.97,11,1,11,0.62
2013-4-18,78,70,64,65,62,60,94,78,60,28.97,28.82,10,1,11,0.00
2013-4-19,70,64,52,68,60,45,98,85,75,28.82,28.61,10,2,11,0.75
2013-4-20,66,55,41,48,43,35,81,65,53,29.09,28.79,8,1,11,0.00
2013-4-21,67,56,42,50,43,35,77,64,52,29.23,29.09,8,1,9,0.00
2013-4-22,67,58,48,51,45,40,74,63,55,29.23,29.03,10,2,10,0.00
2013-4-23,72,58,43,56,46,35,76,66,56,29.09,28.94,6,1,6,0.00
2013-4-24,75,63,51,62,54,43,83,73,60,28.97,28.85,8,1,8,0.00
2013-4-25,74,64,51,57,52,40,84,66,51,29.09,28.91,7,1,8,0.00
2013-4-26,72,59,42,53,46,35,75,62,51,29.23,29.09,6,1,10,0.00
2013-4-27,62,59,57,56,52,49,85,79,68,29.17,29.09,3,0,3,0.16
2013-4-28,58,57,55,57,54,52,95,91,85,29.09,28.88,4,0,4,2.78
2013-4-29,73,64,57,62,58,55,98,82,66,28.91,28.76,6,1,6,0.04
2013-4-30,78,67,56,64,58,51,86,75,58,28.97,28.82,7,1,7,0.04
2013-5-1,71,66,60,59,57,54,81,71,62,29.09,28.97,13,2,13,0.00
2013-5-2,68,63,61,58,56,54,81,77,71,29.09,29.03,7,2,7,0.00
2013-5-3,64,61,59,56,55,53,87,81,71,29.06,28.91,6,2,7,0.04
2013-5-4,60,57,54,55,51,46,93,81,70,28.91,28.79,6,2,6,0.91
2013-5-5,57,55,52,56,53,51,98,94,92,28.79,28.64,5,1,7,2.00
2013-5-6,64,58,51,56,53,49,100,82,68,28.76,28.64,8,1,8,0.12
2013-5-7,73,60,48,58,52,44,85,75,59,28.82,28.70,6,1,6,0.41
2013-5-8,73,61,50,63,55,46,98,81,66,28.88,28.79,8,0,8,0.00
2013-5-9,82,67,55,66,59,50,89,77,57,28.94,28.85,6,1,6,0.34
2013-5-10,79,68,57,68,62,52,88,80,67,28.94,28.79,9,0,9,0.04
2013-5-11,77,70,62,68,63,59,91,80,66,28.85,28.67,6,1,10,0.20
2013-5-12,76,65,54,59,53,42,87,67,50,28.91,28.73,12,1,12,0.00
2013-5-13,73,60,45,54,45,37,75,59,48,29.03,28.88,11,1,12,0.00
2013-5-14,76,62,45,59,49,36,73,63,54,29.09,28.91,8,1,8,0.00
2013-5-15,89,73,59,70,60,52,79,65,50,28.94,28.82,6,1,6,0.00
2013-5-16,81,71,62,68,61,54,80,71,59,28.91,28.82,6,0,6,0.00
2013-5-17,84,72,61,69,62,56,86,72,57,28.94,28.85,6,1,6,0.00
2013-5-18,75,70,66,68,65,59,93,85,76,28.97,28.88,3,0,4,0.92
2013-5-19,75,70,66,70,67,63,100,90,80,28.97,28.85,3,0,3,0.12
2013-5-20,82,72,62,70,66,60,97,82,66,28.97,28.85,4,0,4,0.00
2013-5-21,87,75,66,74,67,62,92,79,63,28.88,28.79,5,1,7,0.58
2013-5-22,84,74,65,72,66,61,91,79,67,28.85,28.73,6,1,6,0.00
2013-5-23,85,78,68,72,66,57,92,68,56,28.82,28.70,13,2,17,0.00
2013-5-24,81,71,57,62,56,45,72,60,49,29.06,28.76,8,1,11,0.00
2013-5-25,78,65,48,61,52,40,75,63,53,29.14,29.00,5,1,8,0.00
2013-5-26,77,66,56,61,55,49,77,67,56,29.14,29.00,5,1,5,0.00
2013-5-27,84,71,57,66,60,51,81,69,56,29.09,28.97,6,1,6,0.00
2013-5-28,84,73,63,69,63,57,84,71,56,29.09,28.97,7,1,7,0.00
2013-5-29,83,74,64,70,64,58,84,71,56,29.09,29.00,4,1,6,0.00
2013-5-30,84,74,65,69,64,58,84,72,58,29.12,29.00,5,0,5,0.00
2013-5-31,86,76,68,71,66,62,86,72,60,29.09,28.97,5,1,5,0.00
2013-6-1,85,77,70,71,68,65,85,73,62,29.00,28.85,4,1,4,0.00
2013-6-2,79,73,70,72,69,66,95,87,78,28.88,28.76,3,0,5,0.83
2013-6-3,84,77,69,75,70,67,99,81,66,28.82,28.70,4,1,4,0.00
2013-6-4,86,78,65,72,68,60,89,73,59,28.91,28.79,5,2,5,0.00
2013-6-5,84,76,68,72,68,63,86,77,66,28.94,28.79,6,1,7,0.42
2013-6-6,77,72,68,72,68,64,93,88,81,28.85,28.64,2,0,2,0.29
2013-6-7,86,74,69,77,70,66,99,90,74,28.70,28.52,4,1,4,0.66
2013-6-8,84,76,68,72,69,66,98,81,66,28.94,28.70,6,1,6,0.04
2013-6-9,87,75,69,74,69,65,93,83,64,28.97,28.88,5,0,5,1.08
2013-6-10,80,74,71,75,70,66,100,89,75,28.91,28.76,12,1,12,0.87
2013-6-11,91,80,71,76,72,66,100,80,62,28.85,28.79,6,1,6,0.38
2013-6-12,89,78,68,79,71,63,89,81,72,28.88,28.79,4,0,6,0.00
2013-6-13,94,80,71,78,72,67,94,78,54,28.79,28.55,8,1,9,0.08
2013-6-14,84,75,64,67,64,59,86,70,55,28.88,28.64,0,0,1,0.04
2013-6-15,86,75,63,68,63,56,80,68,56,28.97,28.88,5,1,5,0.00
2013-6-16,86,81,69,72,70,64,83,69,62,29.00,28.85,6,1,6,0.00
2013-6-17,83,76,72,74,71,67,92,83,72,28.91,28.79,6,0,6,0.57
2013-6-18,84,76,71,76,71,67,97,85,70,28.82,28.64,6,1,7,0.30
2013-6-19,82,76,71,70,68,65,85,75,65,28.97,28.73,3,0,3,0.30
2013-6-20,83,75,67,70,67,62,87,76,64,29.06,28.94,4,0,4,0.00
2013-6-21,83,76,68,70,66,62,87,73,59,29.12,29.00,5,0,5,0.00
2013-6-22,84,75,66,69,65,60,84,71,58,29.12,28.97,6,1,6,0.00
2013-6-23,85,82,76,73,72,70,79,71,64,29.09,28.97,3,0,3,0.00
2013-6-24,88,79,72,75,71,67,88,76,65,29.09,28.97,6,1,6,0.00
2013-6-25,88,79,70,75,70,65,89,76,65,29.03,28.91,5,0,6,0.00
2013-6-26,90,79,71,77,71,66,88,76,64,28.94,28.82,6,0,6,0.00
2013-6-27,91,87,80,77,75,71,76,67,62,28.73,28.64,8,1,8,0.00
2013-6-28,82,79,77,70,69,68,76,72,67,28.55,28.55,4,1,4,0.00
2013-6-29,90,85,75,73,69,65,73,59,53,28.58,28.52,7,1,7,0.00
2013-6-30,87,82,76,73,70,68,77,68,62,28.70,28.61,4,1,6,0.00
2013-7-2,84,78,71,74,71,68,94,80,67,28.97,28.82,6,1,6,0.21
2013-7-3,82,75,70,74,70,66,93,86,75,29.06,28.97,4,0,8,2.20
2013-7-4,77,72,69,77,71,67,100,95,90,29.09,29.00,4,0,4,2.70
2013-7-5,83,76,72,74,72,69,100,89,70,29.09,29.03,3,0,6,0.79
2013-7-6,85,76,72,77,72,70,100,88,67,29.09,28.97,6,1,10,0.83
2013-7-7,84,78,74,76,74,72,97,88,74,29.03,28.97,3,0,5,0.28
2013-7-8,86,79,72,77,74,70,97,84,68,29.06,28.97,4,0,6,0.50
2013-7-9,88,79,72,77,73,70,99,84,67,29.06,28.94,5,0,5,0.25
2013-7-10,88,78,73,77,73,71,97,86,71,29.00,28.85,4,0,5,0.37
2013-7-11,82,76,72,76,73,70,99,91,81,28.85,28.76,2,0,3,0.38
2013-7-12,87,76,70,76,70,65,96,83,66,28.85,28.76,4,0,4,0.16
2013-7-13,81,74,69,72,69,65,95,85,74,28.97,28.85,4,0,4,0.58
2013-7-14,81,76,72,75,72,70,97,88,77,29.12,28.97,5,0,6,0.63
2013-7-15,86,77,71,75,72,70,100,85,67,29.20,29.12,4,0,4,0.04
2013-7-16,90,81,72,76,73,69,94,78,63,29.20,29.09,3,0,4,0.00
2013-7-17,93,80,72,79,72,68,90,77,60,29.14,29.00,4,0,4,0.13
2013-7-18,90,80,71,76,72,67,92,77,62,29.09,28.94,4,0,4,0.00
2013-7-19,91,82,72,78,73,68,88,76,63,29.00,28.88,4,0,4,0.00
2013-7-20,89,79,74,77,73,70,91,81,65,28.94,28.82,6,0,8,0.37
2013-7-21,90,79,72,79,73,70,96,84,65,28.91,28.79,7,0,7,1.41
2013-7-22,87,79,72,78,74,70,98,85,69,28.88,28.73,7,1,10,0.00
2013-7-23,90,80,70,77,72,67,93,79,64,28.79,28.67,6,1,6,0.00
2013-7-24,90,79,70,76,71,67,90,77,63,28.73,28.64,4,0,4,0.00
2013-7-25,88,78,68,74,69,63,87,75,63,28.88,28.73,5,0,6,0.00
2013-7-26,87,78,70,74,69,65,86,76,64,28.97,28.85,4,0,5,0.29
2013-7-27,85,77,72,76,72,68,96,84,72,28.88,28.76,4,0,6,0.00
2013-7-28,89,77,68,75,70,65,92,79,64,28.88,28.79,4,0,6,0.00
2013-7-29,86,76,67,73,68,62,86,76,63,29.03,28.88,3,0,5,0.00
2013-7-30,87,78,68,73,69,62,85,74,61,29.09,29.00,4,0,6,0.00
2013-7-31,83,77,73,75,70,67,88,79,70,29.03,28.85,6,0,6,1.29
2013-8-1,89,79,73,77,72,70,91,81,66,28.88,28.76,4,0,6,0.17
2013-8-2,88,80,71,74,71,67,89,76,63,28.91,28.79,4,0,4,0.00
2013-8-3,89,80,72,75,71,66,88,74,63,28.91,28.85,4,0,4,0.00
2013-8-4,91,81,72,76,71,66,85,73,60,28.91,28.82,5,0,5,0.00
2013-8-5,86,79,72,74,69,65,81,74,64,28.94,28.85,3,1,3,0.00
2013-8-6,86,79,74,76,73,70,93,82,69,28.91,28.85,5,1,5,1.58
2013-8-7,78,76,74,77,74,71,97,92,87,28.97,28.88,2,0,2,0.99
2013-8-8,83,77,74,77,75,73,99,93,80,28.97,28.88,4,0,4,0.04
2013-8-9,87,79,73,79,75,72,98,89,75,28.97,28.91,6,0,6,0.21
2013-8-10,91,80,74,80,74,70,96,83,66,29.00,28.94,5,0,9,0.04
2013-8-11,90,80,71,78,72,68,92,79,65,29.03,28.94,4,0,6,0.04
2013-8-12,92,81,72,78,73,69,90,78,64,28.97,28.85,5,0,5,0.04
2013-8-13,89,84,76,76,73,68,82,71,64,28.82,28.70,6,1,6,0.00
2013-8-14,82,76,72,70,68,64,85,75,65,28.94,28.76,4,0,5,0.00
2013-8-15,76,72,68,64,62,60,81,73,64,29.00,28.91,5,1,8,0.00
2013-8-16,76,70,66,64,61,60,80,74,67,29.00,28.91,4,0,4,0.00
2013-8-17,71,68,67,64,62,60,88,79,71,29.00,28.97,2,0,2,0.17
2013-8-18,76,71,67,70,67,64,93,89,80,29.06,28.97,2,0,4,0.49
2013-8-19,77,73,69,72,70,68,97,91,82,29.03,28.94,2,0,3,2.04
2013-8-20,81,75,70,72,70,68,96,87,73,29.03,28.97,2,0,4,0.00
2013-8-21,79,75,72,74,72,69,97,91,79,29.09,28.97,4,0,4,0.74
2013-8-22,88,78,69,77,72,67,93,83,66,29.00,28.88,4,0,4,0.25
2013-8-23,88,78,70,74,70,66,91,79,63,28.91,28.82,4,0,4,0.63
2013-8-24,82,75,69,70,67,62,89,75,62,29.12,28.91,7,0,7,0.00
2013-8-25,81,73,63,67,63,57,82,71,57,29.20,29.09,4,0,4,0.00
2013-8-26,83,74,64,69,64,58,81,72,60,29.14,28.97,3,0,6,0.00
2013-8-27,87,76,65,73,67,59,82,73,59,29.00,28.88,4,0,4,0.00
2013-8-28,89,78,69,75,70,63,86,75,63,28.91,28.79,0,0,0,0.00
2013-8-29,90,80,71,77,72,66,85,77,64,28.85,28.73,0,0,0,0.00
2013-8-30,81,77,74,74,72,71,94,86,77,28.91,28.79,0,0,0,3.45
2013-8-31,89,78,72,77,72,68,91,84,67,28.82,28.73,9,0,9,1.24
2013-9-1,87,78,71,79,73,68,94,86,72,28.76,28.67,5,0,6,0.67
2013-9-2,86,78,71,77,72,68,93,82,72,28.76,28.67,0,0,0,0.00
2013-9-3,87,78,69,76,71,65,91,80,65,28.82,28.70,1,0,1,0.66
2013-9-4,86,78,69,73,69,64,89,76,63,28.94,28.82,0,0,0,0.00
2013-9-5,87,78,69,74,70,64,86,75,63,28.97,28.91,0,0,0,0.00
2013-9-6,83,76,68,69,66,62,83,72,58,29.03,28.91,0,0,0,0.00
2013-9-7,83,75,68,70,66,61,82,73,65,29.00,28.85,0,0,0,0.00
2013-9-8,87,77,68,73,68,61,84,73,58,28.85,28.79,0,0,0,0.00
2013-9-14,79,73,60,63,60,52,76,63,56,28.94,28.85,0,0,0,0.00
2013-9-15,80,76,70,68,65,61,79,70,63,29.06,28.94,0,0,0,0.00
2013-9-16,82,73,66,70,65,60,84,77,66,28.97,28.97,0,0,0,0.00
2013-9-18,75,72,68,63,62,60,79,69,63,29.12,29.00,0,0,0,0.00
2013-9-19,82,73,62,69,64,56,82,73,60,29.03,28.91,0,0,0,0.00
2013-9-20,86,79,66,72,68,60,83,69,59,28.94,28.76,0,0,0,0.00
2013-9-21,72,70,67,70,66,62,96,88,79,28.79,28.50,0,0,0,1.54
2013-9-22,78,70,60,68,64,57,94,82,68,28.76,28.58,0,0,0,0.00
2013-9-23,75,70,65,65,63,60,90,79,66,28.91,28.76,0,0,0,0.00
2013-9-24,74,69,64,65,62,58,85,78,69,28.91,28.76,0,0,0,0.00
2013-9-25,69,67,66,64,63,62,90,87,82,28.76,28.70,0,0,0,1.03
2013-9-26,76,69,64,66,63,59,91,81,68,28.88,28.73,0,0,0,0.00
2013-9-27,77,68,59,64,60,53,85,74,60,29.00,28.88,0,0,0,0.00
2013-9-28,74,68,60,62,59,53,83,73,60,29.09,28.97,0,0,0,0.00
2013-9-29,73,66,58,62,58,51,81,74,64,29.03,28.88,0,0,0,0.00
2013-9-30,76,69,61,63,60,55,83,74,60,28.97,28.85,0,0,0,0.00
2013-10-1,80,70,59,66,60,53,82,72,57,29.03,28.91,0,0,0,0.00
2013-10-2,83,72,61,68,62,54,82,72,56,29.03,28.94,0,0,0,0.00
2013-10-3,84,72,63,69,63,56,84,73,58,29.03,28.94,0,0,0,0.00
2013-10-4,84,73,62,70,63,56,82,72,56,29.03,28.94,0,0,0,0.00
2013-10-5,85,74,63,70,64,57,82,72,56,29.00,28.91,0,0,0,0.00
2013-10-6,82,73,66,69,64,60,82,74,64,28.94,28.73,0,0,0,0.54
2013-10-7,80,73,67,70,65,57,90,77,68,28.85,28.70,0,0,0,1.04
2013-10-8,72,67,61,58,55,53,76,67,58,29.03,28.85,0,0,0,0.00
2013-10-9,73,66,56,57,54,48,76,66,57,29.09,28.97,0,0,0,0.00
2013-10-10,78,66,54,63,55,46,78,69,57,29.00,28.85,0,0,0,0.00
2013-10-11,80,69,58,64,58,51,80,69,56,28.91,28.79,0,0,0,0.00
2013-10-12,80,70,58,66,59,51,79,70,56,28.97,28.85,0,0,0,0.00
2013-10-13,76,70,66,65,62,59,82,76,67,29.09,28.97,0,0,0,0.04
2013-10-14,76,70,64,65,62,59,84,76,66,29.09,29.00,0,0,0,0.00
2013-10-15,79,68,62,64,58,55,82,73,60,29.06,28.94,0,0,0,0.00
2013-10-16,75,66,57,63,57,51,82,74,62,28.97,28.85,0,0,0,0.00
2013-10-17,69,67,65,66,63,60,92,87,80,28.85,28.73,0,0,0,0.17
2013-10-18,73,65,57,62,58,52,89,80,66,28.91,28.79,0,0,0,0.00
2013-10-19,66,62,56,59,56,49,86,80,74,28.85,28.76,0,0,0,0.00
2013-10-20,68,58,47,56,48,41,79,70,58,28.97,28.82,0,0,0,0.00
2013-10-21,69,58,49,58,50,41,82,74,67,29.03,28.88,0,0,0,0.00
2013-10-22,70,63,58,60,55,50,86,77,66,28.91,28.70,0,0,0,0.00
2013-10-23,75,58,46,59,46,34,79,65,52,28.91,28.64,0,0,0,0.00
2013-10-24,67,53,39,51,41,31,74,64,55,29.03,28.91,0,0,0,0.00
2013-10-25,66,51,41,50,38,31,72,62,54,29.20,29.03,0,0,0,0.00
2013-10-26,64,50,35,49,38,27,74,64,53,29.20,28.97,0,0,0,0.00
2013-10-27,72,58,44,56,47,36,75,67,57,29.00,28.91,0,0,0,0.00
2013-10-28,68,61,57,59,54,48,84,77,69,29.09,28.97,0,0,0,0.12
2013-10-29,77,63,50,63,53,44,81,71,57,29.14,29.06,0,0,0,0.00
2013-10-30,81,67,57,65,57,51,82,71,57,29.12,28.97,0,0,0,0.00
2013-10-31,70,64,59,60,56,52,83,77,68,29.03,28.73,0,0,0,0.00
2013-11-2,75,60,50,60,48,41,79,65,52,28.85,28.61,0,0,0,0.00
2013-11-3,74,55,42,56,43,34,75,64,51,29.17,28.85,0,0,0,0.00
2013-11-4,71,52,41,54,40,34,76,65,52,29.32,29.17,0,0,0,0.00
2013-11-5,69,52,40,52,40,32,76,66,53,29.35,29.20,0,0,0,0.00
2013-11-6,70,60,52,56,52,43,83,73,61,29.23,28.97,0,0,0,0.00
2013-11-7,77,61,46,65,51,35,87,69,51,28.97,28.82,0,0,0,0.05
2013-11-8,79,52,37,57,38,30,75,61,47,29.14,28.97,0,0,0,0.00
2013-11-9,74,51,36,54,38,28,74,63,49,29.20,29.06,0,0,0,0.00
2013-11-10,87,60,44,65,45,36,75,60,46,29.06,28.97,0,0,0,0.00
2013-11-11,79,54,39,57,40,30,72,60,47,29.17,29.00,0,0,0,0.00
2013-11-12,89,52,36,66,39,22,75,60,46,29.26,28.91,0,0,0,0.00
2013-11-13,69,43,28,49,28,17,66,57,50,29.35,29.26,0,0,0,0.00
2013-11-14,75,45,28,54,31,18,67,58,48,29.29,29.14,0,0,0,0.00
2013-11-15,53,47,35,47,37,24,81,68,58,29.14,29.00,0,0,0,0.12
2013-11-16,60,56,52,54,51,47,86,83,80,29.09,29.03,0,0,0,0.00
2013-11-17,61,60,58,60,57,54,97,91,86,29.06,28.76,0,0,0,0.87
2013-11-18,94,66,50,73,55,38,99,70,48,28.85,28.73,0,0,0,0.04
2013-11-19,80,53,38,60,40,30,74,60,47,29.06,28.85,0,0,0,0.00
2013-11-20,71,51,40,51,37,31,71,59,49,29.23,29.06,0,0,0,0.00
2013-11-21,53,52,50,48,42,37,83,71,59,29.26,29.20,0,0,0,0.25
2013-11-22,63,58,53,58,53,48,90,86,82,29.23,28.97,0,0,0,0.08
2013-11-23,64,58,44,59,52,33,96,81,61,29.03,28.91,0,0,0,0.00
2013-11-24,64,43,33,45,30,22,72,60,51,29.35,29.03,0,0,0,0.00
2013-11-25,60,41,29,42,28,20,69,60,52,29.38,29.14,0,0,0,0.04
2013-11-26,51,46,39,47,40,29,87,80,64,29.14,28.50,0,0,0,3.82
2013-11-27,67,46,32,52,37,22,88,72,58,29.03,28.44,0,0,0,0.25
2013-11-28,50,42,33,35,30,25,71,63,54,29.29,29.17,0,0,0,0.00
2013-11-29,70,44,30,51,32,22,76,64,49,29.38,29.26,0,0,0,0.00
2013-11-30,60,42,33,43,31,26,75,64,52,29.44,29.17,0,0,0,0.00
2013-12-1,65,48,39,47,37,29,74,65,53,29.20,28.85,0,0,0,0.00
2013-12-2,59,49,38,47,40,30,79,73,63,28.85,28.64,0,0,0,0.00
2013-12-3,56,54,51,52,49,45,91,86,79,28.82,28.70,0,0,0,0.25
2013-12-4,60,58,55,59,56,52,98,95,91,28.91,28.79,0,0,0,0.04
2013-12-5,68,62,59,68,62,59,100,100,98,28.97,28.85,0,0,0,1.20
2013-12-6,72,68,66,71,67,64,100,96,87,28.91,28.82,0,0,0,0.46
2013-12-7,77,63,53,64,56,43,99,78,57,29.17,28.85,0,0,0,0.04
2013-12-8,53,46,41,44,40,37,86,80,71,29.20,29.09,0,0,0,0.54
2013-12-9,49,45,41,46,42,37,94,89,86,29.09,28.88,0,0,0,1.12
2013-12-10,77,52,35,60,43,26,99,73,54,29.14,28.76,0,0,0,1.12
2013-12-11,67,43,30,49,32,23,76,66,50,29.26,29.12,0,0,0,0.00
2013-12-12,64,42,30,46,31,23,76,65,51,29.23,29.12,0,0,0,0.00
2013-12-13,60,38,0,44,30,21,75,60,35,30.28,29.06,0,0,0,0.00
2013-12-14,46,18,0,40,29,10,47,38,31,30.24,29.80,0,0,3,1.22
2013-12-15,58,45,28,40,28,17,62,51,47,30.14,29.77,12,1,17,0.06
2013-12-16,61,40,25,47,28,15,65,62,59,30.19,30.10,7,0,13,0.00
2013-12-17,66,46,29,51,33,18,65,62,58,30.18,30.00,14,1,18,0.00
2013-12-18,57,41,28,41,27,15,59,57,54,30.30,30.12,9,0,17,0.00
2013-12-19,62,41,25,46,28,14,61,59,55,30.34,30.22,6,0,8,0.00
2013-12-20,58,44,31,44,31,20,64,61,59,30.26,30.16,4,0,5,0.00
2013-12-21,61,53,46,52,43,34,74,69,64,30.17,30.01,5,0,8,0.24
2013-12-22,65,60,57,58,54,52,83,79,74,30.08,29.98,9,0,11,2.73
2013-12-23,62,54,39,57,49,35,86,85,83,30.18,30.02,5,0,7,0.24
2013-12-24,45,34,26,40,30,22,88,86,84,30.41,30.17,5,0,9,0.00
2013-12-25,42,29,20,37,25,16,86,85,84,30.53,30.37,6,0,7,0.00
2013-12-26,56,34,22,50,30,19,85,84,82,30.39,30.24,4,0,6,0.00
2013-12-27,53,35,25,47,30,21,84,83,81,30.48,30.34,5,0,5,0.00
2013-12-28,46,36,25,41,31,20,84,83,82,30.42,30.06,5,0,5,0.54
2013-12-29,65,48,38,60,43,33,85,84,83,30.07,29.81,8,0,8,0.99
2013-12-30,54,43,33,49,39,29,86,85,84,30.14,29.98,4,0,6,0.00
2013-12-31,53,40,31,48,35,26,84,83,81,30.36,30.13,8,0,11,0.00
2014-1-1,49,38,29,44,33,24,83,82,81,30.38,30.22,4,0,4,0.00
2014-1-2,47,39,26,43,34,22,84,82,81,30.22,29.69,17,0,21,0.21